Time;durP1;ratioP1;P1;durP2;ratioP2;P2;SDS_P1;SDS_P2;PMS_P1;PMS_P2;Temp;Humidity;BMP_temperature;BMP_pressure;BME280_temperature;BME280_humidity;BME280_pressure;Samples;Min_cycle;Max_cycle;Signal;HPM_P1;HPM_P2
2022/09/29 00:00:25;;;;;;;;;4.00;4.00;;;;;13.81;100.00;97778.00;4975052;28;45469;-79
2022/09/29 00:02:51;;;;;;;;;3.40;3.00;;;;;13.85;100.00;97781.25;4959492;28;47160;-79
2022/09/29 00:05:16;;;;;;;;;4.00;3.00;;;;;13.86;100.00;97773.19;4978590;28;45318;-79
2022/09/29 00:07:43;;;;;;;;;2.50;2.50;;;;;13.90;100.00;97764.06;4980984;28;45393;-79
2022/09/29 00:10:09;;;;;;;;;3.60;2.00;;;;;13.91;100.00;97752.47;4975544;28;45399;-79
2022/09/29 00:12:34;;;;;;;;;1.00;1.00;;;;;13.93;100.00;97750.56;4975465;28;45483;-79
2022/09/29 00:14:59;;;;;;;;;2.00;2.00;;;;;13.95;100.00;97755.75;4974495;28;45402;-78
2022/09/29 00:17:25;;;;;;;;;3.00;3.00;;;;;13.95;100.00;97740.69;4990444;28;45819;-78
2022/09/29 00:19:50;;;;;;;;;3.25;3.25;;;;;13.97;100.00;97738.78;4975209;28;45478;-78
2022/09/29 00:22:16;;;;;;;;;3.00;3.00;;;;;14.00;100.00;97727.13;4969718;28;46086;-78
2022/09/29 00:24:41;;;;;;;;;3.50;3.50;;;;;13.98;100.00;97729.88;4972747;28;45432;-79
2022/09/29 00:27:06;;;;;;;;;3.00;3.00;;;;;13.99;100.00;97736.03;4974274;28;45398;-78
2022/09/29 00:29:32;;;;;;;;;4.00;3.75;;;;;14.01;100.00;97747.34;4975091;28;45468;-78
2022/09/29 00:31:57;;;;;;;;;6.50;4.75;;;;;14.02;100.00;97746.41;4974115;28;48354;-79
2022/09/29 00:34:22;;;;;;;;;3.00;3.00;;;;;14.00;100.00;97761.56;4975351;28;45421;-80
2022/09/29 00:36:48;;;;;;;;;3.75;3.00;;;;;13.93;100.00;97761.16;4975548;28;45375;-79
2022/09/29 00:39:13;;;;;;;;;5.50;4.00;;;;;13.88;100.00;97758.03;4986376;28;45555;-78
2022/09/29 00:41:41;;;;;;;;;4.75;2.00;;;;;13.83;100.00;97752.22;4975287;28;46291;-79
2022/09/29 00:44:45;;;;;;;;;4.80;3.80;;;;;13.82;100.00;97747.91;4971424;28;45639;-79
2022/09/29 00:47:16;;;;;;;;;2.00;2.00;;;;;13.83;100.00;97738.16;4974323;28;45459;-79
2022/09/29 00:49:58;;;;;;;;;2.00;2.00;;;;;13.82;100.00;97732.00;4974600;28;45283;-79
2022/09/29 00:52:25;;;;;;;;;2.00;2.00;;;;;13.81;100.00;97740.91;4975093;28;46481;-79
2022/09/29 00:54:58;;;;;;;;;4.20;4.00;;;;;13.83;100.00;97731.03;4974423;28;45371;-80
2022/09/29 00:57:29;;;;;;;;;3.00;3.00;;;;;13.85;100.00;97742.38;4974971;28;45351;-79
2022/09/29 01:00:00;;;;;;;;;3.75;3.75;;;;;13.85;100.00;97738.88;4962100;28;45474;-80
2022/09/29 01:02:28;;;;;;;;;3.00;3.00;;;;;13.88;100.00;97733.34;4974756;28;45512;-80
2022/09/29 01:04:54;;;;;;;;;5.20;5.20;;;;;13.88;100.00;97722.75;4974398;28;45518;-79
2022/09/29 01:07:22;;;;;;;;;10.25;9.25;;;;;13.89;100.00;97732.41;4974843;28;45514;-79
2022/09/29 01:09:50;;;;;;;;;4.00;4.00;;;;;13.89;100.00;97732.41;4974117;28;45398;-79
2022/09/29 01:12:16;;;;;;;;;5.00;4.00;;;;;13.87;100.00;97719.25;4974924;28;46541;-79
2022/09/29 01:14:42;;;;;;;;;4.00;3.00;;;;;13.88;100.00;97726.25;4989343;28;45696;-80
2022/09/29 01:17:08;;;;;;;;;4.00;4.00;;;;;13.90;100.00;97718.19;4975095;28;45414;-80
2022/09/29 01:20:15;;;;;;;;;2.75;2.25;;;;;13.94;100.00;97722.28;4974642;28;45356;-80
2022/09/29 01:23:19;;;;;;;;;3.20;3.20;;;;;13.96;100.00;97723.84;4971070;28;45628;-79
2022/09/29 01:25:59;;;;;;;;;2.00;2.00;;;;;13.95;100.00;97724.81;4967174;28;45526;-80
2022/09/29 01:28:43;;;;;;;;;3.50;3.25;;;;;13.94;100.00;97714.31;4983135;28;45320;-80
2022/09/29 01:31:34;;;;;;;;;2.00;2.00;;;;;13.93;100.00;97715.28;4970371;28;45483;-80
2022/09/29 01:34:19;;;;;;;;;2.20;2.20;;;;;13.93;100.00;97721.44;4974466;28;45465;-80
2022/09/29 01:37:25;;;;;;;;;3.00;3.00;;;;;13.94;100.00;97706.38;4975481;28;45587;-79
2022/09/29 01:40:05;;;;;;;;;4.00;4.00;;;;;13.97;100.00;97711.44;4987417;28;45454;-80
2022/09/29 01:42:45;;;;;;;;;2.75;2.50;;;;;13.98;100.00;97713.97;4975175;28;45483;-80
2022/09/29 01:45:33;;;;;;;;;4.00;4.00;;;;;13.97;100.00;97716.75;4975223;28;46550;-80
2022/09/29 01:48:07;;;;;;;;;5.00;3.40;;;;;13.93;100.00;97712.63;4970513;28;45433;-80
2022/09/29 01:50:39;;;;;;;;;4.60;4.60;;;;;13.88;100.00;97709.50;4972006;28;45379;-80
2022/09/29 01:53:10;;;;;;;;;4.00;4.00;;;;;13.83;100.00;97712.50;4971067;28;45383;-80
2022/09/29 01:55:42;;;;;;;;;4.00;3.00;;;;;13.82;100.00;97708.16;4971497;28;45443;-80
2022/09/29 01:58:16;;;;;;;;;6.20;5.00;;;;;13.80;100.00;97702.13;4974763;28;45566;-80
2022/09/29 02:00:49;;;;;;;;;4.00;3.00;;;;;13.80;100.00;97717.19;4984807;28;45408;-80
2022/09/29 02:03:40;;;;;;;;;5.75;5.00;;;;;13.81;100.00;97708.28;4977212;28;45749;-79
2022/09/29 02:06:20;;;;;;;;;6.00;5.20;;;;;13.80;100.00;97702.13;4977775;28;45544;-79
2022/09/29 02:08:53;;;;;;;;;7.00;5.00;;;;;13.78;100.00;97704.03;4971821;28;45327;-80
2022/09/29 02:11:18;;;;;;;;;6.00;6.00;;;;;13.78;100.00;97712.00;4977528;28;45506;-79
2022/09/29 02:13:50;;;;;;;;;5.50;5.50;;;;;13.79;100.00;97712.84;4971237;28;45500;-80
2022/09/29 02:16:23;;;;;;;;;7.50;4.75;;;;;13.79;100.00;97710.19;4974588;28;47542;-79
2022/09/29 02:19:00;;;;;;;;;5.00;5.00;;;;;13.76;100.00;97713.06;4970908;28;45372;-80
2022/09/29 02:21:27;;;;;;;;;4.40;4.40;;;;;13.72;100.00;97715.13;4977371;28;45439;-80
2022/09/29 02:23:53;;;;;;;;;5.75;5.75;;;;;13.68;100.00;97704.88;4975349;28;45434;-80
2022/09/29 02:26:20;;;;;;;;;6.00;6.00;;;;;13.66;100.00;97698.84;4977316;28;46063;-80
2022/09/29 02:28:46;;;;;;;;;4.80;4.40;;;;;13.63;100.00;97710.50;4975176;28;45517;-80
2022/09/29 02:31:12;;;;;;;;;2.75;2.00;;;;;13.56;100.00;97715.44;4977814;28;45391;-80
2022/09/29 02:33:38;;;;;;;;;3.75;3.00;;;;;13.48;100.00;97696.59;4975884;28;45513;-80
2022/09/29 02:36:39;;;;;;;;;2.00;2.00;;;;;13.43;100.00;97703.19;4977264;28;45992;-80
2022/09/29 02:39:28;;;;;;;;;4.00;4.00;;;;;13.36;100.00;97700.19;4984280;28;45486;-79
2022/09/29 02:42:15;;;;;;;;;6.00;6.00;;;;;13.32;100.00;97704.00;4976516;28;45406;-80
2022/09/29 02:44:57;;;;;;;;;4.50;4.50;;;;;13.31;100.00;97704.09;4975594;28;45477;-80
2022/09/29 02:47:41;;;;;;;;;4.80;3.80;;;;;13.29;100.00;97698.94;4975838;28;45571;-79
2022/09/29 02:50:31;;;;;;;;;5.00;3.20;;;;;13.25;100.00;97700.94;4974598;28;45203;-79
2022/09/29 02:52:59;;;;;;;;;4.00;4.00;;;;;13.23;100.00;97699.41;4970506;28;45471;-80
2022/09/29 02:55:28;;;;;;;;;4.00;4.00;;;;;13.18;100.00;97698.88;4970649;28;45395;-80
2022/09/29 02:58:10;;;;;;;;;4.00;3.75;;;;;13.16;100.00;97701.63;4971117;28;46359;-80
2022/09/29 03:00:36;;;;;;;;;2.60;2.60;;;;;13.16;100.00;97698.16;4976217;28;45410;-80
2022/09/29 03:03:01;;;;;;;;;4.75;3.00;;;;;13.17;100.00;97699.84;4976647;28;45459;-80
2022/09/29 03:05:27;;;;;;;;;2.00;2.00;;;;;13.15;100.00;97688.50;4970599;28;45659;-80
2022/09/29 03:07:52;;;;;;;;;2.00;2.00;;;;;13.13;100.00;97679.81;4976032;28;45473;-80
2022/09/29 03:10:18;;;;;;;;;1.00;1.00;;;;;13.11;100.00;97671.13;4972833;28;45316;-80
2022/09/29 03:12:43;;;;;;;;;2.00;2.00;;;;;13.08;100.00;97690.72;4976612;28;45553;-80
2022/09/29 03:15:13;;;;;;;;;1.00;1.00;;;;;13.05;100.00;97708.66;4976917;28;45375;-80
2022/09/29 03:17:39;;;;;;;;;1.00;1.00;;;;;13.02;100.00;97720.28;4976690;28;46260;-80
2022/09/29 03:20:05;;;;;;;;;2.00;2.00;;;;;13.00;100.00;97724.84;4976616;28;45367;-80
2022/09/29 03:22:30;;;;;;;;;2.60;2.60;;;;;13.01;100.00;97723.03;4976476;28;45575;-80
2022/09/29 03:24:56;;;;;;;;;2.00;2.00;;;;;13.02;100.00;97717.66;4976571;28;45366;-80
2022/09/29 03:27:21;;;;;;;;;1.75;1.75;;;;;13.03;100.00;97721.13;4976339;28;46425;-80
2022/09/29 03:29:47;;;;;;;;;1.00;1.00;;;;;13.01;100.00;97749.50;4976341;28;45385;-79
2022/09/29 03:32:12;;;;;;;;;0.00;0.00;;;;;13.00;97.57;97726.66;4976682;28;45505;-78
2022/09/29 03:34:38;;;;;;;;;0.00;0.00;;;;;13.01;95.12;97728.34;4975247;28;45336;-79
2022/09/29 03:37:04;;;;;;;;;0.00;0.00;;;;;12.99;93.49;97727.59;4975236;28;45467;-81
2022/09/29 03:39:29;;;;;;;;;0.00;0.00;;;;;12.94;89.77;97709.41;4980022;28;45370;-80
2022/09/29 03:41:55;;;;;;;;;1.00;0.00;;;;;12.91;87.53;97759.88;4972691;28;45343;-80
2022/09/29 03:44:20;;;;;;;;;0.00;0.00;;;;;12.83;89.34;97756.94;4976125;28;45463;-78
2022/09/29 03:46:46;;;;;;;;;0.00;0.00;;;;;12.76;90.18;97735.38;4975781;28;46509;-77
2022/09/29 03:49:14;;;;;;;;;1.00;0.00;;;;;12.62;90.08;97735.50;4975866;28;45564;-77
2022/09/29 03:51:39;;;;;;;;;0.00;0.00;;;;;12.55;90.80;97736.91;4975920;28;45442;-77
2022/09/29 03:54:05;;;;;;;;;0.00;0.00;;;;;12.48;91.96;97714.47;4970658;28;45402;-77
2022/09/29 03:56:31;;;;;;;;;0.00;0.00;;;;;12.44;92.57;97723.56;4975781;28;46304;-77
2022/09/29 03:58:56;;;;;;;;;0.00;0.00;;;;;12.40;92.78;97727.41;4971968;28;45472;-78
2022/09/29 04:01:22;;;;;;;;;0.00;0.00;;;;;12.36;93.09;97723.28;4974448;28;45512;-78
2022/09/29 04:03:47;;;;;;;;;0.00;0.00;;;;;12.35;91.68;97734.78;4969298;28;45419;-78
2022/09/29 04:06:13;;;;;;;;;0.00;0.00;;;;;12.37;93.05;97731.09;4980356;28;45531;-77
2022/09/29 04:08:38;;;;;;;;;0.00;0.00;;;;;12.36;95.14;97739.97;4988916;28;45462;-78
2022/09/29 04:11:04;;;;;;;;;0.00;0.00;;;;;12.33;96.45;97739.34;4973592;28;45461;-78
2022/09/29 04:13:30;;;;;;;;;0.00;0.00;;;;;12.31;96.99;97749.16;4976320;28;45387;-78
2022/09/29 04:16:04;;;;;;;;;0.00;0.00;;;;;12.29;97.65;97748.41;4974653;28;45878;-78
2022/09/29 04:18:30;;;;;;;;;0.00;0.00;;;;;12.26;97.79;97741.53;4977770;28;45454;-78
2022/09/29 04:20:59;;;;;;;;;1.00;0.00;;;;;12.23;97.61;97755.81;4972586;28;45466;-78
2022/09/29 04:23:30;;;;;;;;;0.00;0.00;;;;;12.21;97.11;97739.25;4974784;28;45677;-79
2022/09/29 04:25:56;;;;;;;;;0.00;0.00;;;;;12.29;95.48;97754.56;4975089;28;46426;-78
2022/09/29 04:28:22;;;;;;;;;0.00;0.00;;;;;12.33;95.84;97740.19;4974243;28;45359;-79
2022/09/29 04:30:48;;;;;;;;;1.00;0.00;;;;;12.34;94.96;97738.38;4973767;28;45512;-79
2022/09/29 04:33:13;;;;;;;;;0.00;0.00;;;;;12.36;94.95;97739.97;4975663;28;45512;-78
2022/09/29 04:35:38;;;;;;;;;0.00;0.00;;;;;12.44;90.74;97735.00;4975117;28;45454;-79
2022/09/29 04:38:04;;;;;;;;;0.00;0.00;;;;;12.54;89.85;97746.63;4974152;28;45435;-79
2022/09/29 04:40:30;;;;;;;;;0.00;0.00;;;;;12.62;88.69;97750.53;4974052;28;45441;-79
2022/09/29 04:42:55;;;;;;;;;0.00;0.00;;;;;12.74;88.57;97739.06;4973913;28;45496;-79
2022/09/29 04:45:20;;;;;;;;;0.00;0.00;;;;;12.83;89.88;97735.78;4974408;28;45538;-79
2022/09/29 04:47:46;;;;;;;;;0.00;0.00;;;;;12.85;91.40;97747.94;4990350;28;45331;-79
2022/09/29 04:50:11;;;;;;;;;0.00;0.00;;;;;12.86;92.34;97749.66;4976707;28;45296;-80
2022/09/29 04:52:36;;;;;;;;;0.00;0.00;;;;;12.86;93.47;97751.44;4974783;28;45387;-79
2022/09/29 04:55:03;;;;;;;;;0.00;0.00;;;;;12.84;94.13;97748.06;4972674;28;45687;-80
2022/09/29 04:57:28;;;;;;;;;0.00;0.00;;;;;12.78;94.20;97748.47;4974482;28;45289;-80
2022/09/29 04:59:54;;;;;;;;;0.25;0.00;;;;;12.74;94.68;97744.34;4974058;28;45443;-80
2022/09/29 05:02:20;;;;;;;;;0.00;0.00;;;;;12.68;93.86;97758.88;4974339;28;45395;-80
2022/09/29 05:04:46;;;;;;;;;0.00;0.00;;;;;12.63;94.45;97760.13;4974352;28;46270;-80
2022/09/29 05:07:12;;;;;;;;;0.00;0.00;;;;;12.65;95.09;97760.88;4976228;28;45478;-80
2022/09/29 05:09:38;;;;;;;;;0.40;0.00;;;;;12.65;94.81;97759.09;4973870;28;45423;-80
2022/09/29 05:12:03;;;;;;;;;0.00;0.00;;;;;12.67;94.82;97764.28;4975466;28;45529;-80
2022/09/29 05:14:29;;;;;;;;;0.00;0.00;;;;;12.69;95.23;97762.38;4977726;28;45608;-80
2022/09/29 05:16:55;;;;;;;;;0.50;0.50;;;;;12.72;95.48;97768.28;4978089;28;45437;-80
2022/09/29 05:19:21;;;;;;;;;0.80;0.80;;;;;12.75;95.59;97760.13;4971485;28;45482;-80
2022/09/29 05:21:46;;;;;;;;;0.00;0.00;;;;;12.78;96.30;97765.19;4977967;28;45453;-80
2022/09/29 05:24:11;;;;;;;;;0.00;0.00;;;;;12.82;95.42;97757.91;4977605;28;46115;-80
2022/09/29 05:26:37;;;;;;;;;2.00;0.25;;;;;12.85;95.33;97763.81;5000236;28;45384;-80
2022/09/29 05:29:02;;;;;;;;;0.00;0.00;;;;;12.88;95.05;97771.53;4977441;28;45474;-80
2022/09/29 05:31:28;;;;;;;;;1.00;0.00;;;;;12.92;93.58;97766.84;4972272;28;45424;-79
2022/09/29 05:33:55;;;;;;;;;0.00;0.00;;;;;12.93;93.59;97766.75;4973111;28;46414;-79
2022/09/29 05:36:21;;;;;;;;;0.00;0.00;;;;;12.95;93.17;97771.94;4975605;28;45455;-80
2022/09/29 05:38:47;;;;;;;;;0.00;0.00;;;;;12.94;92.17;97778.19;4990940;28;45495;-80
2022/09/29 05:41:15;;;;;;;;;0.00;0.00;;;;;12.94;92.33;97778.19;4974467;28;45397;-80
2022/09/29 05:43:40;;;;;;;;;0.80;0.00;;;;;12.94;92.67;97778.19;4976748;28;45517;-80
2022/09/29 05:46:08;;;;;;;;;0.00;0.00;;;;;12.93;91.93;97787.06;4976898;28;45522;-80
2022/09/29 05:48:34;;;;;;;;;0.00;0.00;;;;;12.94;92.17;97778.19;4976357;28;45307;-79
2022/09/29 05:51:07;;;;;;;;;0.50;0.00;;;;;12.96;93.69;97781.56;4976514;28;45528;-80
2022/09/29 05:53:32;;;;;;;;;0.60;0.60;;;;;12.97;92.44;97790.34;4975800;28;46520;-79
2022/09/29 05:55:58;;;;;;;;;1.00;1.00;;;;;12.97;93.85;97787.69;4976696;28;45554;-80
2022/09/29 05:58:24;;;;;;;;;1.00;1.00;;;;;13.00;94.25;97790.13;4974037;28;45395;-80
2022/09/29 06:00:49;;;;;;;;;2.00;2.00;;;;;13.00;93.31;97790.97;4972759;28;45598;-79
2022/09/29 06:03:14;;;;;;;;;1.25;1.00;;;;;13.01;94.48;97789.19;4973393;28;46872;-79
2022/09/29 06:05:40;;;;;;;;;1.00;1.00;;;;;13.04;94.85;97787.16;4973407;28;45453;-79
2022/09/29 06:08:09;;;;;;;;;1.00;1.00;;;;;13.09;94.79;97786.81;4993533;28;45405;-79
2022/09/29 06:10:34;;;;;;;;;2.00;1.00;;;;;13.12;94.03;97789.25;4960669;28;45334;-79
2022/09/29 06:13:02;;;;;;;;;1.00;1.00;;;;;13.11;92.87;97793.69;4966004;28;45755;-78
2022/09/29 06:15:27;;;;;;;;;1.00;1.00;;;;;13.09;93.24;97797.41;4961183;28;45427;-77
2022/09/29 06:17:57;;;;;;;;;1.50;1.00;;;;;13.10;94.15;97799.09;4975688;28;45878;-77
2022/09/29 06:20:23;;;;;;;;;1.80;1.00;;;;;13.10;93.90;97799.94;4973449;28;45591;-77
2022/09/29 06:22:50;;;;;;;;;3.00;3.00;;;;;13.09;94.47;97795.59;4973901;28;45657;-77
2022/09/29 06:25:16;;;;;;;;;1.00;1.00;;;;;13.09;93.10;97794.75;4975796;28;45579;-76
2022/09/29 06:27:41;;;;;;;;;0.00;0.00;;;;;13.08;92.42;97793.06;4976425;28;45340;-76
2022/09/29 06:30:07;;;;;;;;;1.00;1.00;;;;;13.08;92.95;97796.56;4973955;28;45449;-77
2022/09/29 06:32:33;;;;;;;;;1.00;1.00;;;;;13.08;94.62;97793.91;4990684;28;48126;-77
2022/09/29 06:37:45;;;;;;;;;2.20;2.20;;;;;13.17;94.89;97788.00;4974710;28;45429;-77
2022/09/29 06:40:11;;;;;;;;;2.00;2.00;;;;;13.23;93.62;97784.94;4974710;28;45481;-77
2022/09/29 06:42:37;;;;;;;;;1.00;1.00;;;;;13.28;94.11;97788.06;4975950;28;45507;-77
2022/09/29 06:45:03;;;;;;;;;1.75;1.75;;;;;13.33;93.79;97795.69;4975087;28;45567;-77
2022/09/29 06:47:29;;;;;;;;;1.00;0.75;;;;;13.35;93.48;97787.63;4974456;28;45450;-77
2022/09/29 06:49:54;;;;;;;;;0.50;0.00;;;;;13.35;92.65;97785.84;4975101;28;45396;-77
2022/09/29 06:52:19;;;;;;;;;2.75;1.00;;;;;13.37;92.36;97788.38;4973744;28;47964;-78
2022/09/29 06:54:45;;;;;;;;;7.00;6.25;;;;;13.40;92.63;97785.50;4964485;28;45605;-77
2022/09/29 06:57:11;;;;;;;;;2.50;2.00;;;;;13.46;92.66;97779.75;4974517;28;45512;-78
2022/09/29 06:59:36;;;;;;;;;1.00;1.00;;;;;13.50;92.64;97779.41;4972288;28;45363;-78
2022/09/29 07:02:02;;;;;;;;;8.00;2.00;;;;;13.57;92.16;97779.81;5001657;28;46977;-78
2022/09/29 07:04:28;;;;;;;;;1.00;1.00;;;;;13.58;91.29;97777.03;4986406;28;45470;-78
2022/09/29 07:06:53;;;;;;;;;2.00;1.75;;;;;13.64;91.78;97775.75;4977770;28;45429;-78
2022/09/29 07:09:19;;;;;;;;;1.00;1.00;;;;;13.66;90.97;97765.88;4973486;28;45502;-77
2022/09/29 07:11:48;;;;;;;;;2.00;1.00;;;;;13.68;91.47;97763.13;4974786;28;45351;-78
2022/09/29 07:14:15;;;;;;;;;4.60;3.00;;;;;13.70;91.48;97763.88;4971373;28;45423;-77
2022/09/29 07:16:41;;;;;;;;;4.00;2.20;;;;;13.76;91.33;97768.69;4974586;28;45465;-78
2022/09/29 07:19:07;;;;;;;;;2.00;2.00;;;;;13.77;91.54;97770.38;4973992;28;45575;-79
2022/09/29 07:21:33;;;;;;;;;2.25;2.00;;;;;13.78;91.43;97769.41;4975682;28;46072;-79
2022/09/29 07:23:58;;;;;;;;;2.00;2.00;;;;;13.77;92.30;97765.94;4973917;28;45577;-79
2022/09/29 07:26:23;;;;;;;;;2.50;2.00;;;;;13.82;90.45;97776.19;4975398;28;45365;-79
2022/09/29 07:28:49;;;;;;;;;2.00;2.00;;;;;13.82;90.52;97774.38;4975337;28;45530;-79
2022/09/29 07:31:17;;;;;;;;;2.50;2.00;;;;;13.86;91.71;97769.72;4973702;28;47603;-79
2022/09/29 07:33:44;;;;;;;;;2.20;2.00;;;;;13.90;91.49;97764.06;4975083;28;45492;-78
2022/09/29 07:36:10;;;;;;;;;3.00;3.00;;;;;13.97;91.59;97772.38;4990105;28;45395;-79
2022/09/29 07:38:35;;;;;;;;;5.75;5.25;;;;;14.04;91.88;97764.84;4974373;28;45534;-79
2022/09/29 07:41:07;;;;;;;;;2.00;2.00;;;;;14.13;91.89;97769.41;4975374;28;45517;-79
2022/09/29 07:43:33;;;;;;;;;2.60;2.00;;;;;14.18;91.59;97764.63;4973834;28;45483;-79
2022/09/29 07:45:59;;;;;;;;;0.60;0.60;;;;;14.25;91.02;97771.13;4975027;28;45365;-79
2022/09/29 07:48:25;;;;;;;;;2.25;1.50;;;;;14.31;90.21;97770.66;4973619;28;45331;-79
2022/09/29 07:50:51;;;;;;;;;3.20;3.00;;;;;14.36;90.10;97771.16;4975121;28;45545;-80
2022/09/29 07:53:17;;;;;;;;;3.00;3.00;;;;;14.37;90.19;97762.25;4989224;28;45386;-79
2022/09/29 07:55:42;;;;;;;;;2.25;2.25;;;;;14.43;90.62;97767.09;4974943;28;45444;-79
2022/09/29 07:58:08;;;;;;;;;3.00;2.00;;;;;14.47;89.59;97771.22;4974526;28;45450;-77
2022/09/29 08:00:33;;;;;;;;;1.00;1.00;;;;;14.52;90.15;97768.22;4973257;28;46307;-80
2022/09/29 08:03:08;;;;;;;;;3.00;3.00;;;;;14.60;90.49;97771.94;4975037;28;45582;-80
2022/09/29 08:05:34;;;;;;;;;3.00;2.00;;;;;14.68;89.07;97771.34;4974081;28;45488;-78
2022/09/29 08:08:01;;;;;;;;;1.75;1.75;;;;;14.73;88.57;97777.16;4973889;28;45696;-77
2022/09/29 08:10:27;;;;;;;;;2.40;2.40;;;;;14.78;88.89;97777.63;4974535;28;45478;-79
2022/09/29 08:12:54;;;;;;;;;1.80;1.80;;;;;14.81;88.65;97772.06;4974275;28;45482;-79
2022/09/29 08:15:20;;;;;;;;;2.40;1.60;;;;;14.84;88.57;97771.84;4973808;28;45545;-79
2022/09/29 08:17:46;;;;;;;;;2.25;2.25;;;;;14.90;89.04;97775.81;4972022;28;45598;-79
2022/09/29 08:20:11;;;;;;;;;3.25;1.50;;;;;14.95;88.09;97778.94;4956667;28;46750;-78
2022/09/29 08:22:37;;;;;;;;;2.00;2.00;;;;;15.00;87.24;97782.09;4971641;28;45212;-78
2022/09/29 08:25:03;;;;;;;;;2.25;1.75;;;;;14.99;86.63;97786.53;4973318;28;45388;-79
2022/09/29 08:27:28;;;;;;;;;2.75;2.75;;;;;14.96;86.50;97783.28;4974841;28;45414;-79
2022/09/29 08:29:54;;;;;;;;;2.00;2.00;;;;;14.93;86.94;97780.88;4974474;28;45748;-78
2022/09/29 08:32:20;;;;;;;;;3.60;1.80;;;;;14.92;86.25;97784.47;4974574;28;45370;-77
2022/09/29 08:34:45;;;;;;;;;1.50;1.50;;;;;14.92;85.42;97787.13;4973526;28;45460;-77
2022/09/29 08:37:10;;;;;;;;;0.75;0.75;;;;;14.89;84.86;97780.28;4975626;28;45448;-78
2022/09/29 08:39:36;;;;;;;;;0.75;0.75;;;;;14.84;85.79;97785.09;4973102;28;46383;-77
2022/09/29 08:42:23;;;;;;;;;0.80;0.80;;;;;14.86;85.33;97787.63;4973373;28;45422;-78
2022/09/29 08:44:59;;;;;;;;;1.60;1.60;;;;;14.93;86.02;97787.00;4984554;28;45524;-78
2022/09/29 08:47:34;;;;;;;;;11.75;11.75;;;;;15.01;86.06;97789.09;4972706;28;45487;-77
2022/09/29 08:50:03;;;;;;;;;5.00;4.20;;;;;15.10;86.58;97784.84;4977338;28;46236;-77
2022/09/29 08:52:32;;;;;;;;;1.60;1.60;;;;;15.17;85.08;97778.09;4977022;28;45458;-78
2022/09/29 08:55:17;;;;;;;;;3.00;3.00;;;;;15.23;85.25;97772.28;4975647;28;45444;-78
2022/09/29 08:57:45;;;;;;;;;3.00;3.00;;;;;15.33;84.92;97776.72;4976379;28;45497;-78
2022/09/29 09:00:17;;;;;;;;;4.60;3.60;;;;;15.42;84.71;97783.09;4975857;28;47130;-78
2022/09/29 09:03:12;;;;;;;;;4.40;4.40;;;;;15.55;85.14;97782.97;4977682;28;45458;-79
2022/09/29 09:05:48;;;;;;;;;1.40;1.40;;;;;15.67;85.00;97789.94;4977013;28;45398;-79
2022/09/29 09:08:40;;;;;;;;;2.60;2.60;;;;;15.78;84.92;97789.06;4976677;28;45418;-78
2022/09/29 09:11:47;;;;;;;;;3.60;3.00;;;;;15.87;84.71;97780.34;4977620;28;46329;-78
2022/09/29 09:14:24;;;;;;;;;4.80;4.80;;;;;15.98;84.14;97788.25;4971335;28;45503;-77
2022/09/29 09:17:21;;;;;;;;;3.60;3.60;;;;;16.09;84.11;97782.06;4979818;28;45430;-77
2022/09/29 09:20:00;;;;;;;;;3.00;3.00;;;;;16.18;82.12;97783.94;4976873;28;45524;-78
2022/09/29 09:22:37;;;;;;;;;3.20;2.20;;;;;16.23;81.41;97779.09;4979188;28;46525;-78
2022/09/29 09:25:17;;;;;;;;;2.80;0.80;;;;;16.28;81.58;97779.50;4976411;28;45398;-77
2022/09/29 09:27:48;;;;;;;;;0.40;0.40;;;;;16.18;80.56;97779.47;4978021;28;45317;-77
2022/09/29 09:30:17;;;;;;;;;0.80;0.80;;;;;16.01;76.74;97782.69;4976055;28;45397;-77
2022/09/29 09:32:59;;;;;;;;;0.80;0.80;;;;;15.89;79.37;97779.25;4976994;28;46363;-78
2022/09/29 09:35:36;;;;;;;;;0.00;0.00;;;;;15.83;79.02;97782.41;4977292;28;45430;-77
2022/09/29 09:38:10;;;;;;;;;1.00;0.80;;;;;15.76;77.88;97783.88;4966920;28;45498;-78
2022/09/29 09:40:43;;;;;;;;;0.20;0.20;;;;;15.69;73.81;97778.22;4991563;28;46016;-77
2022/09/29 09:43:19;;;;;;;;;0.20;0.20;;;;;15.58;74.96;97788.06;4976524;28;46311;-78
2022/09/29 09:46:02;;;;;;;;;1.00;1.00;;;;;15.47;76.37;97780.91;4976549;28;45514;-77
2022/09/29 09:48:41;;;;;;;;;0.40;0.20;;;;;15.39;75.71;97778.06;4976400;28;45437;-78
2022/09/29 09:51:58;;;;;;;;;0.00;0.00;;;;;15.32;76.10;97777.69;4972032;28;45565;-78
2022/09/29 09:54:26;;;;;;;;;0.60;0.20;;;;;15.25;76.28;97781.78;4967842;28;45675;-79
2022/09/29 09:57:06;;;;;;;;;1.60;0.60;;;;;15.25;76.45;97773.81;4976634;28;45328;-79
2022/09/29 10:00:12;;;;;;;;;0.20;0.20;;;;;15.26;75.00;97779.97;4970740;28;45326;-78
2022/09/29 10:02:46;;;;;;;;;0.20;0.20;;;;;15.24;75.21;97774.81;4974592;28;45327;-78
2022/09/29 10:05:15;;;;;;;;;1.40;0.00;;;;;15.25;75.97;97778.28;4955396;28;48128;-78
2022/09/29 10:07:41;;;;;;;;;0.20;0.20;;;;;15.28;75.93;97786.03;4975663;28;45508;-78
2022/09/29 10:10:28;;;;;;;;;1.60;0.00;;;;;15.30;76.31;97781.44;4974798;28;45335;-77
2022/09/29 10:13:13;;;;;;;;;0.80;0.60;;;;;15.31;77.85;97781.31;4975578;28;45520;-77
2022/09/29 10:15:53;;;;;;;;;0.00;0.00;;;;;15.26;74.48;97777.31;4991827;28;48443;-78
2022/09/29 10:18:24;;;;;;;;;0.00;0.00;;;;;15.21;77.24;97777.72;4976512;28;45352;-77
2022/09/29 10:20:50;;;;;;;;;0.00;0.00;;;;;15.12;76.86;97778.44;4976482;28;45450;-78
2022/09/29 10:23:25;;;;;;;;;0.75;0.75;;;;;15.06;76.95;97773.66;4976792;28;45404;-78
2022/09/29 10:26:14;;;;;;;;;0.60;0.60;;;;;15.00;76.17;97763.50;4976648;28;45490;-79
2022/09/29 10:29:00;;;;;;;;;1.00;1.00;;;;;14.91;76.84;97796.09;4980155;28;45387;-79
2022/09/29 10:31:33;;;;;;;;;0.60;0.60;;;;;14.86;75.85;97798.25;4965845;28;45418;-77
2022/09/29 10:34:15;;;;;;;;;0.00;0.00;;;;;14.80;77.02;97782.81;4976905;28;45341;-77
2022/09/29 10:36:57;;;;;;;;;0.20;0.00;;;;;14.75;76.41;97772.53;4976416;28;45517;-78
2022/09/29 10:39:43;;;;;;;;;0.60;0.60;;;;;14.68;77.16;97778.47;4976500;28;45418;-78
2022/09/29 10:42:33;;;;;;;;;0.00;0.00;;;;;14.61;77.46;97786.88;4975415;28;45424;-78
2022/09/29 10:45:16;;;;;;;;;1.40;0.80;;;;;14.61;76.73;97783.38;4976842;28;45403;-78
2022/09/29 10:47:56;;;;;;;;;0.60;0.60;;;;;14.58;77.65;97771.22;4977156;28;45610;-79
2022/09/29 10:50:35;;;;;;;;;2.00;0.80;;;;;14.59;77.09;97783.50;4975501;28;45390;-78
2022/09/29 10:53:05;;;;;;;;;2.00;2.00;;;;;14.58;76.24;97783.63;4976886;28;45453;-80
2022/09/29 10:55:33;;;;;;;;;0.80;0.80;;;;;14.54;77.28;97780.38;4977765;28;45333;-79
2022/09/29 10:58:29;;;;;;;;;2.00;0.00;;;;;14.53;77.75;97784.00;4975051;28;45651;-79
2022/09/29 11:01:13;;;;;;;;;0.80;0.80;;;;;14.48;77.02;97780.84;4975747;28;45419;-78
2022/09/29 11:03:46;;;;;;;;;1.00;0.00;;;;;14.44;77.27;97779.38;4976826;28;45355;-79
2022/09/29 11:06:13;;;;;;;;;1.40;0.80;;;;;14.39;78.09;97778.91;4983101;28;45412;-77
2022/09/29 11:09:01;;;;;;;;;1.00;1.00;;;;;14.36;77.44;97784.44;4975914;28;45651;-79
2022/09/29 11:11:35;;;;;;;;;0.00;0.00;;;;;14.37;79.08;97788.78;4975666;28;45490;-79
2022/09/29 11:14:00;;;;;;;;;0.00;0.00;;;;;14.38;78.37;97779.00;4976608;28;45348;-78
2022/09/29 11:16:36;;;;;;;;;1.00;1.00;;;;;14.39;79.55;97781.53;4976554;28;45367;-78
2022/09/29 11:19:14;;;;;;;;;1.00;1.00;;;;;14.40;79.94;97788.56;4974560;28;47321;-78
2022/09/29 11:21:58;;;;;;;;;0.60;0.60;;;;;14.38;79.36;97797.56;4974732;28;45156;-78
2022/09/29 11:24:45;;;;;;;;;1.00;1.00;;;;;14.35;78.54;97795.16;4976137;28;45394;-78
2022/09/29 11:27:26;;;;;;;;;1.80;0.40;;;;;14.29;78.29;97812.34;4975997;28;45553;-80
2022/09/29 11:30:12;;;;;;;;;0.00;0.00;;;;;14.28;79.84;97781.50;4975664;28;45744;-78
2022/09/29 11:32:48;;;;;;;;;1.00;1.00;;;;;14.38;78.35;97790.47;4976123;28;45608;-79
2022/09/29 11:35:14;;;;;;;;;1.00;0.00;;;;;14.45;77.86;97789.03;4972912;28;45478;-78
2022/09/29 11:38:15;;;;;;;;;0.50;0.50;;;;;14.55;78.12;97786.53;4975489;28;45454;-78
2022/09/29 11:40:58;;;;;;;;;0.40;0.40;;;;;14.64;76.66;97791.13;4976135;28;45598;-79
2022/09/29 11:43:33;;;;;;;;;0.00;0.00;;;;;14.72;74.77;97793.19;4975888;28;45401;-79
2022/09/29 11:46:23;;;;;;;;;0.20;0.20;;;;;14.74;74.37;97781.50;4985016;28;45398;-79
2022/09/29 11:48:55;;;;;;;;;1.60;0.20;;;;;14.79;75.04;97815.59;4971452;28;45316;-79
2022/09/29 11:51:55;;;;;;;;;0.00;0.00;;;;;14.79;74.50;97808.50;4959880;28;45576;-78
2022/09/29 11:54:28;;;;;;;;;0.80;0.80;;;;;14.72;74.98;97788.72;4969856;28;45233;-78